Time;durP1;ratioP1;P1;durP2;ratioP2;P2;SDS_P1;SDS_P2;PMS_P1;PMS_P2;Temp;Humidity;BMP_temperature;BMP_pressure;BME280_temperature;BME280_humidity;BME280_pressure;Samples;Min_cycle;Max_cycle;Signal;HPM_P1;HPM_P2
2021/12/25 00:01:20;;;;;;;6.37;3.33;;;;;;;-3.10;32.82;97297.91;5069828;28;20428;-67
2021/12/25 00:03:46;;;;;;;5.93;3.33;;;;;;;-2.54;32.74;97330.19;5070936;28;20301;-67
2021/12/25 00:06:12;;;;;;;10.50;5.73;;;;;;;-3.21;34.18;97336.94;5069898;28;20306;-68
2021/12/25 00:08:38;;;;;;;5.83;4.40;;;;;;;-2.93;33.49;97344.84;5036272;28;20279;-68
2021/12/25 00:11:07;;;;;;;3.90;2.90;;;;;;;-2.62;33.97;97310.09;5036357;28;20044;-66
2021/12/25 00:13:33;;;;;;;5.97;4.03;;;;;;;-3.30;33.35;97278.84;5070119;28;20047;-67
2021/12/25 00:15:59;;;;;;;4.17;2.90;;;;;;;-2.93;33.94;97294.69;5036212;28;20620;-67
2021/12/25 00:18:24;;;;;;;9.73;4.40;;;;;;;-3.13;33.38;97292.97;5070437;28;20405;-67
2021/12/25 00:20:50;;;;;;;11.13;6.27;;;;;;;-2.83;33.30;97313.72;5052578;28;20045;-68
2021/12/25 00:23:16;;;;;;;2.40;2.00;;;;;;;-2.78;33.15;97264.81;5052920;28;20043;-68
2021/12/25 00:25:47;;;;;;;11.73;5.30;;;;;;;-2.91;33.38;97272.84;5052945;28;20055;-68
2021/12/25 00:31:05;;;;;;;2.20;1.60;;;;;;;-2.06;33.26;97238.31;5053962;28;20688;-68
2021/12/25 00:35:59;;;;;;;1.03;1.03;;;;;;;-1.95;32.90;97204.34;5086409;28;20294;-68
2021/12/25 00:38:25;;;;;;;1.27;1.27;;;;;;;-1.43;33.03;97228.97;5052531;28;20311;-68
2021/12/25 00:40:51;;;;;;;8.30;4.90;;;;;;;-1.59;32.04;97225.34;5070330;28;20120;-68
2021/12/25 00:43:16;;;;;;;1.73;1.63;;;;;;;-1.42;31.74;97220.22;5052922;28;20044;-67
2021/12/25 00:45:42;;;;;;;1.10;1.10;;;;;;;-1.38;31.93;97202.53;5035996;28;20083;-67
2021/12/25 00:48:08;;;;;;;8.43;5.63;;;;;;;-1.67;31.59;97163.59;5052491;28;20958;-68
2021/12/25 00:50:34;;;;;;;2.77;2.27;;;;;;;-1.55;31.82;97152.06;5052441;28;20044;-68
2021/12/25 00:52:59;;;;;;;4.03;3.13;;;;;;;-1.02;33.10;97175.63;5052307;28;20040;-68
2021/12/25 00:55:25;;;;;;;6.60;2.53;;;;;;;-0.99;31.37;97178.75;5070564;28;20044;-68
2021/12/25 00:57:51;;;;;;;1.37;1.37;;;;;;;-1.02;31.31;97168.63;5052310;28;20107;-68
2021/12/25 01:00:18;;;;;;;1.83;1.73;;;;;;;-0.86;31.39;97176.59;5070458;28;20299;-68
2021/12/25 01:02:45;;;;;;;6.67;4.50;;;;;;;-0.92;31.43;97158.16;5052348;28;20056;-68
2021/12/25 01:05:11;;;;;;;1.97;1.87;;;;;;;-0.59;31.94;97150.50;5068884;28;20325;-67
2021/12/25 01:07:37;;;;;;;2.70;2.00;;;;;;;-0.87;31.99;97146.31;5052018;28;20362;-67
2021/12/25 01:10:07;;;;;;;10.83;6.30;;;;;;;-0.69;31.23;97147.13;5052162;28;20879;-67
2021/12/25 01:12:47;;;;;;;9.10;5.90;;;;;;;-1.38;31.43;97109.63;5068795;28;20297;-67
2021/12/25 01:15:14;;;;;;;2.87;2.53;;;;;;;-1.35;31.54;97098.94;5052187;28;20291;-67
2021/12/25 01:36:56;;;;;;;3.07;2.73;;;;;;;-1.01;31.71;97092.13;5069694;28;20317;-68
2021/12/25 01:40:40;;;;;;;0.87;0.87;;;;;;;-0.92;31.73;97086.03;5069899;28;20295;-68
2021/12/25 01:48:44;;;;;;;5.13;2.77;;;;;;;-0.33;31.71;97025.41;5057062;28;20289;-68
2021/12/25 01:51:10;;;;;;;0.80;0.80;;;;;;;-0.78;32.18;97066.44;5050438;28;20274;-68
2021/12/25 01:53:38;;;;;;;2.47;2.37;;;;;;;-0.82;31.99;97063.34;5050027;28;20287;-67
2021/12/25 01:56:04;;;;;;;1.73;1.63;;;;;;;-0.62;32.02;97048.34;5016100;28;20283;-67
2021/12/25 01:58:32;;;;;;;3.07;2.50;;;;;;;-0.40;32.06;97055.66;5049334;28;20045;-67
2021/12/25 02:00:59;;;;;;;2.03;1.93;;;;;;;-0.60;32.27;97031.56;5049333;28;20387;-67
2021/12/25 02:03:29;;;;;;;1.20;1.20;;;;;;;-0.17;32.24;97041.94;5049137;28;20298;-67
2021/12/25 02:05:57;;;;;;;6.05;3.92;;;;;;;-0.09;31.76;97052.44;5066888;28;20307;-68
2021/12/25 02:08:29;;;;;;;1.13;1.10;;;;;;;-0.40;32.17;97019.97;5052521;28;20044;-68
2021/12/25 02:10:55;;;;;;;2.50;2.00;;;;;;;-0.22;32.03;97031.19;5051521;28;20624;-62
2021/12/25 02:13:22;;;;;;;2.93;2.47;;;;;;;-0.59;31.89;97012.38;5068421;28;20119;-62
2021/12/25 02:15:51;;;;;;;1.03;1.03;;;;;;;-0.34;32.12;97035.00;5069351;28;20348;-61
2021/12/25 02:21:26;;;;;;;2.30;2.17;;;;;;;-0.44;32.06;97002.19;5060280;28;20287;-60
2021/12/25 02:23:52;;;;;;;1.65;1.55;;;;;;;-0.25;32.07;97008.00;5071847;28;20278;-61
2021/12/25 02:26:18;;;;;;;1.50;1.50;;;;;;;-0.36;32.17;96990.03;5072866;28;20045;-62
2021/12/25 02:28:44;;;;;;;1.10;1.10;;;;;;;-0.25;32.21;96944.63;5071476;28;20382;-62
2021/12/25 02:31:12;;;;;;;0.83;0.83;;;;;;;0.31;32.06;96967.47;5071416;28;20412;-62
2021/12/25 02:33:39;;;;;;;1.50;1.40;;;;;;;-0.04;32.10;96931.97;5071671;28;20275;-62
2021/12/25 02:36:05;;;;;;;1.57;1.43;;;;;;;0.26;32.07;96967.13;5072466;28;20313;-62
2021/12/25 02:38:35;;;;;;;1.47;1.37;;;;;;;0.09;32.05;96944.56;5072517;28;20330;-62
2021/12/25 02:41:01;;;;;;;0.90;0.90;;;;;;;-0.06;31.54;96937.34;5072458;28;20357;-62
2021/12/25 02:43:27;;;;;;;1.50;1.40;;;;;;;-0.14;31.78;96942.53;5071151;28;20697;-62
2021/12/25 02:45:55;;;;;;;1.43;1.37;;;;;;;-0.04;32.03;96943.22;5072856;28;20286;-62
2021/12/25 02:48:22;;;;;;;2.33;1.83;;;;;;;0.43;32.56;96920.00;5073090;28;20287;-62
2021/12/25 02:50:48;;;;;;;6.57;2.47;;;;;;;0.06;31.75;96929.25;5070874;28;20328;-63
2021/12/25 02:53:16;;;;;;;1.53;1.47;;;;;;;0.39;31.67;96928.31;5071165;28;20282;-63
2021/12/25 02:55:43;;;;;;;1.87;1.60;;;;;;;0.56;32.03;96925.56;5072574;28;20294;-63
2021/12/25 02:58:12;;;;;;;4.40;2.92;;;;;;;0.18;31.49;96938.41;5071052;28;20305;-63
2021/12/25 03:00:47;;;;;;;1.93;1.83;;;;;;;0.96;31.57;96912.53;5054523;28;20056;-63
2021/12/25 03:03:13;;;;;;;2.97;2.03;;;;;;;0.23;31.77;96917.88;5087952;28;20283;-63
2021/12/25 03:05:39;;;;;;;2.27;2.13;;;;;;;0.26;31.62;96925.38;5070781;28;20348;-63
2021/12/25 03:08:07;;;;;;;0.90;0.90;;;;;;;0.51;31.74;96916.59;5072174;28;20052;-63
2021/12/25 03:10:43;;;;;;;1.93;1.83;;;;;;;0.20;31.86;96918.19;5071090;28;20322;-63
2021/12/25 03:15:46;;;;;;;1.13;1.13;;;;;;;0.13;31.67;96862.38;5070854;28;20666;-63
2021/12/25 03:18:23;;;;;;;1.37;1.27;;;;;;;0.63;31.94;96903.03;5071184;28;20303;-66
2021/12/25 03:20:52;;;;;;;1.43;1.20;;;;;;;0.35;31.93;96913.97;5072473;28;20374;-63
2021/12/25 03:23:22;;;;;;;1.53;1.47;;;;;;;0.44;31.88;96892.94;5070982;28;20781;-62
2021/12/25 03:25:49;;;;;;;2.27;2.07;;;;;;;-0.05;31.90;96865.16;5072189;28;21185;-63
2021/12/25 03:28:16;;;;;;;0.90;0.90;;;;;;;0.21;32.08;96884.09;5071111;28;20275;-62
2021/12/25 03:30:43;;;;;;;2.27;2.07;;;;;;;-0.17;31.79;96885.47;5053860;28;20321;-63
2021/12/25 03:33:12;;;;;;;1.30;1.30;;;;;;;0.42;31.54;96879.22;5070274;28;20282;-63
2021/12/25 03:35:38;;;;;;;0.83;0.83;;;;;;;-0.14;31.85;96897.41;5071993;28;20278;-64
2021/12/25 03:38:06;;;;;;;2.00;1.80;;;;;;;0.37;32.01;96878.09;5071950;28;20305;-64
2021/12/25 03:40:32;;;;;;;3.00;2.80;;;;;;;0.03;31.83;96863.34;5071874;28;20040;-63
2021/12/25 03:42:58;;;;;;;1.00;1.00;;;;;;;-0.31;31.91;96857.41;5071883;28;20341;-63
2021/12/25 03:45:27;;;;;;;3.37;2.97;;;;;;;-0.05;31.89;96854.72;5071755;28;20295;-63
2021/12/25 03:48:03;;;;;;;4.57;3.27;;;;;;;-0.34;31.91;96856.91;5070214;28;20073;-63
2021/12/25 03:58:43;;;;;;;1.13;1.13;;;;;;;-0.12;31.74;96830.22;5069465;28;20294;-62
2021/12/25 04:01:26;;;;;;;1.23;1.23;;;;;;;0.00;31.55;96829.75;5069677;28;20843;-62
2021/12/25 04:06:49;;;;;;;0.70;0.70;;;;;;;0.49;31.99;96816.75;5056064;28;20295;-62
2021/12/25 04:09:27;;;;;;;1.00;1.00;;;;;;;0.29;31.97;96808.44;5069609;28;20282;-63
2021/12/25 04:12:06;;;;;;;1.83;1.73;;;;;;;0.52;31.67;96808.59;5069560;28;20287;-62
2021/12/25 04:14:33;;;;;;;1.03;1.03;;;;;;;0.17;31.76;96808.91;5054285;28;20751;-62
2021/12/25 04:16:59;;;;;;;1.40;1.30;;;;;;;0.20;31.52;96806.00;5052616;28;20297;-62
2021/12/25 04:19:25;;;;;;;1.50;1.40;;;;;;;0.32;32.09;96792.44;5069556;28;20036;-61
2021/12/25 04:21:59;;;;;;;0.90;0.90;;;;;;;0.40;31.62;96789.03;5069174;28;20043;-61
2021/12/25 04:24:32;;;;;;;1.00;1.00;;;;;;;0.51;31.99;96792.09;5054385;28;20294;-63
2021/12/25 04:26:58;;;;;;;5.40;2.10;;;;;;;0.23;31.74;96758.69;5069385;28;20301;-63
2021/12/25 05:07:03;;;;;;;1.43;1.43;;;;;;;0.80;31.73;96739.34;5068280;28;20044;-71
2021/12/25 05:09:29;;;;;;;1.47;1.37;;;;;;;0.91;31.83;96720.66;5068331;28;20286;-72
2021/12/25 05:12:03;;;;;;;0.90;0.90;;;;;;;1.11;32.16;96725.31;5068405;28;20291;-74
2021/12/25 05:14:32;;;;;;;1.03;1.03;;;;;;;1.08;31.90;96722.22;5035007;28;20067;-72
2021/12/25 05:16:58;;;;;;;1.00;1.00;;;;;;;0.96;32.01;96716.56;5085482;28;20786;-70
2021/12/25 05:19:25;;;;;;;0.83;0.83;;;;;;;0.99;31.76;96712.81;5051290;28;20059;-72
2021/12/25 05:21:52;;;;;;;0.90;0.90;;;;;;;1.18;31.64;96726.28;5034932;28;20118;-71
2021/12/25 05:24:18;;;;;;;2.17;1.97;;;;;;;1.04;31.68;96716.56;5051621;28;20045;-66
2021/12/25 05:26:47;;;;;;;4.90;4.40;;;;;;;1.15;31.61;96717.97;5068085;28;20052;-66
2021/12/25 05:29:22;;;;;;;1.13;1.13;;;;;;;1.06;31.96;96695.47;5067942;28;20411;-65
2021/12/25 05:31:47;;;;;;;1.53;1.47;;;;;;;1.11;31.77;96674.84;5069089;28;20075;-65
2021/12/25 05:34:19;;;;;;;1.00;1.00;;;;;;;1.17;31.87;96659.31;5067395;28;20038;-65
2021/12/25 05:37:08;;;;;;;1.27;1.27;;;;;;;1.51;32.04;96701.59;5066730;28;20036;-65
2021/12/25 05:39:52;;;;;;;1.47;1.40;;;;;;;1.40;31.64;96698.53;5068733;28;20047;-65
2021/12/25 05:42:23;;;;;;;0.97;0.97;;;;;;;1.48;31.77;96712.38;5068100;28;20569;-65
2021/12/25 05:44:50;;;;;;;1.10;1.10;;;;;;;1.83;32.08;96695.28;5068490;28;20051;-65
2021/12/25 05:47:22;;;;;;;1.20;1.20;;;;;;;1.64;31.88;96698.41;5069224;28;20037;-65
2021/12/25 05:49:52;;;;;;;1.30;1.30;;;;;;;1.59;31.80;96682.41;5072822;28;20044;-65
2021/12/25 05:52:38;;;;;;;1.10;1.10;;;;;;;1.22;31.95;96646.53;5067967;28;20442;-62
2021/12/25 05:55:23;;;;;;;0.93;0.93;;;;;;;1.69;32.04;96630.69;5073266;28;20590;-71
2021/12/25 05:58:10;;;;;;;1.30;1.30;;;;;;;1.54;32.12;96669.84;5072203;28;20040;-73
2021/12/25 06:00:57;;;;;;;2.87;1.67;;;;;;;1.42;32.06;96662.59;5057728;28;20555;-72
2021/12/25 06:03:22;;;;;;;3.67;3.30;;;;;;;1.47;32.38;96627.09;5071690;28;20040;-73
2021/12/25 06:05:48;;;;;;;1.47;1.07;;;;;;;1.32;32.17;96626.22;5089326;28;20045;-68
2021/12/25 06:08:14;;;;;;;1.77;1.67;;;;;;;1.60;31.90;96663.09;5089021;28;20047;-72
2021/12/25 06:10:41;;;;;;;0.83;0.83;;;;;;;1.94;31.96;96657.47;5071946;28;20390;-75
2021/12/25 06:13:10;;;;;;;1.00;1.00;;;;;;;2.15;32.47;96647.13;5072419;28;20044;-75
2021/12/25 06:15:37;;;;;;;0.90;0.90;;;;;;;1.83;32.02;96661.28;5054928;28;20159;-69
2021/12/25 06:18:22;;;;;;;2.00;1.90;;;;;;;1.84;32.38;96631.53;5071563;28;20059;-73
2021/12/25 06:21:20;;;;;;;1.43;1.37;;;;;;;1.83;32.23;96645.59;5064581;28;20063;-71
2021/12/25 06:24:05;;;;;;;1.27;1.27;;;;;;;1.92;32.17;96638.50;5071013;28;20040;-73
2021/12/25 06:26:43;;;;;;;1.63;1.53;;;;;;;1.87;31.81;96641.66;5078738;28;20554;-74
2021/12/25 06:29:19;;;;;;;1.00;1.00;;;;;;;2.53;32.07;96643.44;5055680;28;20094;-74
2021/12/25 06:31:54;;;;;;;1.57;1.50;;;;;;;1.95;31.91;96625.06;5084947;28;20044;-73
2021/12/25 06:34:40;;;;;;;2.03;1.83;;;;;;;2.40;32.04;96617.88;5065370;28;20048;-73
2021/12/25 06:37:26;;;;;;;1.30;1.20;;;;;;;2.28;32.27;96614.09;5061722;28;20091;-68
2021/12/25 06:40:24;;;;;;;1.03;1.03;;;;;;;2.50;32.00;96607.94;5045732;28;20080;-77
2021/12/25 06:42:51;;;;;;;1.00;1.00;;;;;;;2.51;32.01;96583.38;5071970;28;20143;-72
2021/12/25 06:45:17;;;;;;;2.70;1.20;;;;;;;2.64;32.15;96615.00;5085906;28;20468;-69
2021/12/25 06:47:43;;;;;;;1.20;1.13;;;;;;;2.37;32.27;96563.25;5074175;28;20052;-70
2021/12/25 06:50:17;;;;;;;1.37;1.37;;;;;;;2.71;32.12;96617.66;5089982;28;20040;-70
2021/12/25 06:53:01;;;;;;;1.27;1.27;;;;;;;2.77;31.77;96609.91;5088604;28;20047;-70
2021/12/25 06:55:46;;;;;;;0.80;0.80;;;;;;;3.02;32.66;96605.97;5088628;28;20058;-69
2021/12/25 06:58:31;;;;;;;1.00;1.00;;;;;;;3.19;32.37;96611.78;5088798;28;20547;-69
2021/12/25 07:00:57;;;;;;;0.80;0.80;;;;;;;3.27;31.98;96606.44;5085379;28;20032;-68
2021/12/25 07:03:28;;;;;;;1.23;1.23;;;;;;;3.27;31.97;96559.25;5072787;28;20044;-68
2021/12/25 07:06:12;;;;;;;0.70;0.70;;;;;;;3.41;32.04;96585.38;5072395;28;20112;-67
2021/12/25 07:08:56;;;;;;;1.30;1.27;;;;;;;3.41;31.80;96569.66;5074964;28;20469;-68
2021/12/25 07:11:57;;;;;;;2.03;1.42;;;;;;;3.36;31.70;96553.69;5047042;28;20632;-68
2021/12/25 07:14:49;;;;;;;0.80;0.80;;;;;;;3.76;32.21;96585.47;5059633;28;20044;-69
2021/12/25 07:17:38;;;;;;;1.27;1.27;;;;;;;3.85;31.69;96593.03;5076498;28;20124;-67
2021/12/25 07:20:20;;;;;;;0.95;0.95;;;;;;;4.31;31.79;96582.84;5062294;28;20036;-69
2021/12/25 07:23:04;;;;;;;1.60;0.83;;;;;;;3.66;32.17;96558.78;5071214;28;20043;-68
2021/12/25 07:25:37;;;;;;;3.73;2.90;;;;;;;3.97;31.55;96591.50;5068702;28;20040;-68
2021/12/25 07:28:23;;;;;;;1.17;1.17;;;;;;;3.60;31.66;96560.31;5086693;28;20089;-68
2021/12/25 07:30:51;;;;;;;0.80;0.80;;;;;;;3.61;31.69;96595.25;5086372;28;20075;-68
2021/12/25 07:33:18;;;;;;;5.30;2.57;;;;;;;3.96;31.52;96579.41;5090248;28;20122;-68
2021/12/25 07:35:44;;;;;;;0.80;0.80;;;;;;;3.77;32.06;96577.41;5089459;28;20044;-67
2021/12/25 07:38:09;;;;;;;1.77;1.67;;;;;;;3.57;31.54;96578.28;5091176;28;20499;-70
2021/12/25 07:40:36;;;;;;;1.17;1.17;;;;;;;3.73;31.98;96591.13;5086200;28;20408;-67
2021/12/25 07:43:01;;;;;;;2.00;1.90;;;;;;;3.37;31.92;96571.03;5069994;28;20048;-69
2021/12/25 07:45:47;;;;;;;1.33;1.20;;;;;;;3.30;32.00;96595.56;5069934;28;20504;-68
2021/12/25 07:48:14;;;;;;;1.03;1.03;;;;;;;3.31;31.96;96563.91;5053233;28;20068;-68
2021/12/25 07:50:40;;;;;;;1.30;1.20;;;;;;;3.30;32.00;96575.41;5052165;28;20056;-68
2021/12/25 07:53:07;;;;;;;1.10;1.10;;;;;;;3.57;32.32;96565.94;5052554;28;20032;-68
2021/12/25 07:55:33;;;;;;;1.03;1.03;;;;;;;3.43;32.15;96564.22;5063400;28;20459;-69
2021/12/25 07:57:59;;;;;;;2.60;2.37;;;;;;;3.61;32.02;96576.88;5076096;28;20039;-67
2021/12/25 08:00:26;;;;;;;0.83;0.83;;;;;;;3.69;32.22;96582.00;5069877;28;20036;-69
2021/12/25 08:02:52;;;;;;;1.70;1.60;;;;;;;3.58;32.30;96572.84;5071355;28;20036;-65
2021/12/25 08:05:18;;;;;;;0.80;0.80;;;;;;;3.51;32.33;96579.03;5054647;28;20032;-69
2021/12/25 08:07:45;;;;;;;0.90;0.90;;;;;;;3.28;32.39;96561.66;5088074;28;20044;-69
2021/12/25 08:10:16;;;;;;;1.50;1.50;;;;;;;3.30;32.25;96559.69;5038126;28;20557;-68
2021/12/25 08:12:49;;;;;;;1.00;1.00;;;;;;;3.81;32.57;96549.81;5065890;28;20044;-68
2021/12/25 08:15:17;;;;;;;1.10;1.10;;;;;;;3.49;32.57;96527.56;5084784;28;20060;-69
2021/12/25 08:17:43;;;;;;;0.87;0.87;;;;;;;3.36;32.78;96566.81;5068344;28;20068;-68
2021/12/25 08:20:29;;;;;;;1.67;1.63;;;;;;;3.63;32.36;96586.19;5060934;28;20427;-69
2021/12/25 08:23:14;;;;;;;1.10;1.10;;;;;;;3.37;32.46;96571.03;5071500;28;20495;-68
2021/12/25 08:25:59;;;;;;;0.70;0.70;;;;;;;3.70;32.53;96575.75;5087694;28;20408;-70
2021/12/25 08:28:43;;;;;;;1.00;1.00;;;;;;;3.46;32.52;96569.09;5086130;28;20047;-68
2021/12/25 08:31:27;;;;;;;0.73;0.73;;;;;;;3.45;32.51;96560.41;5090589;28;20139;-67
2021/12/25 08:34:12;;;;;;;0.80;0.80;;;;;;;3.45;32.59;96576.16;5091547;28;20048;-67
2021/12/25 08:37:05;;;;;;;1.20;1.20;;;;;;;3.91;32.54;96567.81;5087355;28;20101;-67
2021/12/25 08:39:31;;;;;;;0.70;0.70;;;;;;;3.75;32.42;96576.00;5089014;28;20079;-68
2021/12/25 08:42:02;;;;;;;2.37;2.17;;;;;;;3.26;32.57;96526.94;5088724;28;20042;-67
2021/12/25 08:44:37;;;;;;;;;;;;;;;4.59;31.48;96576.53;5072028;28;20388;-67
2021/12/25 08:47:05;;;;;;;1.20;1.20;;;;;;;4.14;32.61;96576.28;5086779;28;20002;-67
2021/12/25 08:49:33;;;;;;;1.33;1.33;;;;;;;4.14;32.47;96563.13;5088940;28;20055;-67
2021/12/25 08:52:02;;;;;;;1.43;1.40;;;;;;;4.43;32.52;96568.16;5086657;28;20895;-68
2021/12/25 08:54:48;;;;;;;1.50;1.40;;;;;;;4.89;32.05;96577.88;5070245;28;20048;-67
2021/12/25 08:57:15;;;;;;;0.97;0.97;;;;;;;4.39;32.49;96557.25;5088054;28;20040;-65
2021/12/25 08:59:41;;;;;;;1.20;1.20;;;;;;;4.22;32.44;96578.75;5089998;28;20044;-67
2021/12/25 09:02:11;;;;;;;0.93;0.93;;;;;;;4.70;32.46;96569.91;5054509;28;20101;-68
2021/12/25 09:04:38;;;;;;;1.65;1.55;;;;;;;4.46;32.42;96563.31;5070969;28;20072;-68
2021/12/25 09:07:04;;;;;;;1.00;1.00;;;;;;;4.61;32.30;96573.72;5052777;28;20422;-68
2021/12/25 09:09:33;;;;;;;1.00;1.00;;;;;;;4.43;32.48;96555.03;5072121;28;20072;-70
2021/12/25 09:11:59;;;;;;;1.90;1.57;;;;;;;4.31;32.49;96549.50;5086050;28;20143;-71
2021/12/25 09:14:25;;;;;;;10.57;1.20;;;;;;;4.35;32.66;96555.19;5088349;28;20113;-68
2021/12/25 09:16:51;;;;;;;0.70;0.70;;;;;;;4.54;32.84;96546.59;5089712;28;20364;-69
2021/12/25 09:19:17;;;;;;;1.40;1.30;;;;;;;4.71;32.92;96574.97;5088784;28;20123;-67
2021/12/25 09:21:43;;;;;;;1.27;1.20;;;;;;;4.59;33.30;96531.06;5088064;28;20155;-68
2021/12/25 09:24:08;;;;;;;1.00;1.00;;;;;;;5.02;33.11;96570.03;5089623;28;20040;-68
2021/12/25 09:26:34;;;;;;;0.80;0.80;;;;;;;5.37;33.42;96568.09;5089702;28;20051;-70
2021/12/25 09:29:00;;;;;;;1.03;1.03;;;;;;;5.72;32.98;96569.53;5075057;28;20172;-72
2021/12/25 09:31:28;;;;;;;9.00;5.13;;;;;;;5.72;33.42;96577.44;5092535;28;20044;-69
2021/12/25 09:33:53;;;;;;;1.47;1.27;;;;;;;5.85;33.45;96566.94;5092314;28;20415;-69
2021/12/25 09:36:29;;;;;;;1.60;1.43;;;;;;;6.36;33.07;96575.00;5093652;28;20087;-69
2021/12/25 09:38:55;;;;;;;0.83;0.83;;;;;;;6.11;33.51;96582.72;5059076;28;20526;-69
2021/12/25 09:41:20;;;;;;;0.70;0.70;;;;;;;6.20;33.37;96576.22;5092271;28;20040;-71
2021/12/25 09:43:48;;;;;;;1.80;1.60;;;;;;;6.52;33.33;96585.88;5075050;28;20093;-70
2021/12/25 09:46:16;;;;;;;1.20;1.10;;;;;;;6.63;33.25;96590.53;5109578;28;20450;-72
2021/12/25 09:48:42;;;;;;;0.60;0.60;;;;;;;6.32;33.20;96593.03;5092328;28;20126;-73
2021/12/25 09:51:07;;;;;;;1.37;1.27;;;;;;;6.22;33.08;96584.75;5094577;28;20087;-69
2021/12/25 09:53:33;;;;;;;6.57;3.77;;;;;;;6.09;33.16;96553.13;5113614;28;20054;-73
2021/12/25 09:56:01;;;;;;;7.30;3.67;;;;;;;6.49;33.38;96588.94;5094220;28;20559;-68
2021/12/25 09:58:28;;;;;;;0.90;0.90;;;;;;;6.39;33.17;96593.03;5093456;28;20043;-66
2021/12/25 10:00:54;;;;;;;5.27;2.90;;;;;;;6.41;33.67;96585.72;5093197;28;20044;-67
2021/12/25 10:03:20;;;;;;;1.37;1.37;;;;;;;6.57;32.75;96607.19;5091022;28;20044;-66
2021/12/25 10:05:48;;;;;;;1.33;1.23;;;;;;;6.87;33.24;96600.38;5091770;28;20043;-69
2021/12/25 10:08:21;;;;;;;9.87;5.80;;;;;;;7.00;33.33;96607.44;5093420;28;20040;-69
2021/12/25 10:10:55;;;;;;;7.13;4.20;;;;;;;6.84;33.13;96592.88;5092060;28;20039;-67
2021/12/25 10:13:29;;;;;;;5.47;2.33;;;;;;;7.20;33.44;96620.53;5091218;28;20153;-69
2021/12/25 10:15:58;;;;;;;1.17;1.17;;;;;;;6.88;33.70;96617.84;5091817;28;20511;-67
2021/12/25 10:18:33;;;;;;;3.50;2.00;;;;;;;7.25;33.07;96629.47;5092803;28;20511;-73
2021/12/25 10:21:19;;;;;;;5.90;2.70;;;;;;;7.54;33.11;96634.19;5092797;28;20044;-70
2021/12/25 10:24:05;;;;;;;1.77;1.57;;;;;;;7.46;33.07;96634.41;5091267;28;20400;-69
2021/12/25 10:26:32;;;;;;;0.63;0.63;;;;;;;7.12;33.54;96660.38;5091634;28;20048;-71
2021/12/25 10:28:58;;;;;;;0.60;0.60;;;;;;;6.85;33.84;96657.81;5074681;28;20039;-70
2021/12/25 10:31:33;;;;;;;1.00;1.00;;;;;;;7.59;33.47;96649.38;5058173;28;20606;-72
2021/12/25 10:33:59;;;;;;;3.33;2.30;;;;;;;7.10;33.75;96662.41;5074834;28;20043;-74
2021/12/25 10:36:24;;;;;;;6.00;3.23;;;;;;;6.93;33.91;96655.97;5091814;28;20040;-70
2021/12/25 10:39:08;;;;;;;5.20;3.80;;;;;;;7.79;33.16;96666.75;5092108;28;20131;-71
2021/12/25 10:41:38;;;;;;;1.60;1.40;;;;;;;7.37;33.63;96675.28;5108088;28;20048;-72
2021/12/25 10:44:21;;;;;;;1.43;1.33;;;;;;;7.67;33.71;96673.69;5057193;28;20414;-70
2021/12/25 10:46:55;;;;;;;3.13;2.20;;;;;;;7.45;33.76;96674.22;5107787;28;20075;-69
2021/12/25 10:49:30;;;;;;;0.80;0.80;;;;;;;7.49;33.93;96676.25;5091704;28;20043;-70
2021/12/25 10:52:09;;;;;;;5.80;4.23;;;;;;;7.60;33.65;96690.59;5092275;28;20446;-69
2021/12/25 10:54:41;;;;;;;4.57;3.23;;;;;;;7.11;33.99;96669.28;5092767;28;20052;-70
2021/12/25 10:57:07;;;;;;;8.57;3.93;;;;;;;6.92;34.21;96701.84;5092514;28;20063;-69
2021/12/25 10:59:45;;;;;;;3.40;2.37;;;;;;;7.64;33.37;96715.59;5073647;28;20040;-69
2021/12/25 11:02:47;;;;;;;2.80;2.00;;;;;;;7.73;33.60;96719.59;5057779;28;20142;-70
2021/12/25 11:05:17;;;;;;;3.53;2.60;;;;;;;7.61;33.91;96724.72;5091855;28;20388;-70
2021/12/25 11:07:46;;;;;;;0.73;0.73;;;;;;;7.63;34.27;96733.25;5092430;28;20056;-69
2021/12/25 11:10:15;;;;;;;1.13;1.13;;;;;;;7.63;34.49;96727.97;5092141;28;20052;-68
2021/12/25 11:12:44;;;;;;;3.37;2.17;;;;;;;7.76;33.90;96741.13;5074476;28;20055;-69
2021/12/25 11:15:19;;;;;;;4.93;3.53;;;;;;;8.08;33.96;96744.59;5092431;28;20051;-70
2021/12/25 11:17:50;;;;;;;1.47;1.37;;;;;;;8.16;34.45;96749.66;5092008;28;20138;-71
2021/12/25 11:20:23;;;;;;;2.20;1.43;;;;;;;8.29;34.43;96750.41;5092144;28;20407;-69
2021/12/25 11:22:51;;;;;;;1.40;1.30;;;;;;;9.06;34.21;96751.78;5091134;28;20093;-69
2021/12/25 11:25:19;;;;;;;5.70;2.47;;;;;;;9.19;34.25;96743.72;5074078;28;20484;-70
2021/12/25 11:27:46;;;;;;;2.40;2.20;;;;;;;9.42;34.18;96762.44;5091958;28;20044;-69
2021/12/25 11:30:12;;;;;;;3.37;2.87;;;;;;;9.65;33.81;96763.41;5091898;28;20112;-68
2021/12/25 11:32:38;;;;;;;3.53;2.60;;;;;;;9.63;34.22;96764.63;5090850;28;20537;-70
2021/12/25 11:35:05;;;;;;;0.90;0.80;;;;;;;9.90;34.46;96764.09;5090688;28;20040;-70
2021/12/25 11:37:31;;;;;;;2.37;2.10;;;;;;;10.12;34.54;96775.88;5091762;28;20052;-70
2021/12/25 11:39:57;;;;;;;1.27;1.17;;;;;;;10.25;34.69;96780.19;5091832;28;20408;-69
2021/12/25 11:42:25;;;;;;;0.70;0.70;;;;;;;10.33;34.64;96787.00;5091916;28;20131;-70
2021/12/25 11:44:54;;;;;;;0.80;0.80;;;;;;;10.17;34.04;96786.63;5091749;28;20048;-70
2021/12/25 11:47:51;;;;;;;0.80;0.80;;;;;;;10.60;33.52;96790.91;5090664;28;20048;-70
2021/12/25 11:50:32;;;;;;;1.07;1.07;;;;;;;10.14;34.42;96787.06;5088568;28;20419;-70
2021/12/25 11:53:25;;;;;;;1.20;1.10;;;;;;;10.31;33.61;96812.94;5091602;28;20396;-70
2021/12/25 11:58:42;;;;;;;0.90;0.90;;;;;;;9.04;34.67;96830.63;5090129;28;20131;-69
2021/12/25 12:01:38;;;;;;;2.03;1.83;;;;;;;9.66;34.13;96833.06;5091669;28;20122;-70
2021/12/25 12:04:15;;;;;;;1.77;1.67;;;;;;;9.40;34.22;96833.34;5091661;28;20503;-69
2021/12/25 12:06:44;;;;;;;0.83;0.83;;;;;;;9.06;34.04;96816.13;5090841;28;20075;-69
2021/12/25 12:09:36;;;;;;;0.97;0.93;;;;;;;8.85;33.33;96835.03;5091854;28;20500;-69
2021/12/25 12:12:27;;;;;;;0.97;0.97;;;;;;;8.61;34.49;96854.31;5079101;28;20052;-67
2021/12/25 12:15:18;;;;;;;1.63;1.50;;;;;;;8.49;33.65;96846.28;5074942;28;20079;-69
2021/12/25 12:18:34;;;;;;;0.80;0.80;;;;;;;8.32;33.62;96839.88;5090288;28;20066;-70
2021/12/25 12:21:12;;;;;;;0.80;0.80;;;;;;;8.09;34.38;96876.53;5077947;28;20100;-70
2021/12/25 12:26:13;;;;;;;1.90;1.70;;;;;;;7.25;33.59;96863.53;5091770;28;20054;-68
2021/12/25 12:28:46;;;;;;;1.33;1.20;;;;;;;7.79;33.31;96878.06;5090452;28;20147;-68
2021/12/25 12:31:33;;;;;;;8.57;2.53;;;;;;;7.98;32.84;96903.59;5073188;28;20185;-68
2021/12/25 12:33:59;;;;;;;0.70;0.70;;;;;;;7.07;33.58;96911.66;5090729;28;20048;-68
2021/12/25 12:36:27;;;;;;;0.60;0.60;;;;;;;7.67;33.28;96907.97;5072387;28;20036;-68
2021/12/25 12:38:58;;;;;;;2.53;1.87;;;;;;;7.33;33.04;96908.19;5090316;28;20121;-69
2021/12/25 12:41:34;;;;;;;0.87;0.87;;;;;;;7.57;32.83;96915.47;5088954;28;20040;-68
2021/12/25 12:44:15;;;;;;;0.60;0.60;;;;;;;7.45;33.21;96917.94;5090324;28;20234;-68
2021/12/25 12:46:50;;;;;;;0.80;0.80;;;;;;;7.56;32.36;96932.34;5090732;28;20378;-69
2021/12/25 12:49:21;;;;;;;1.17;1.07;;;;;;;7.33;33.27;96931.97;5090182;28;20052;-69
2021/12/25 12:52:09;;;;;;;0.83;0.83;;;;;;;7.50;32.91;96946.38;5090444;28;20032;-69
2021/12/25 12:54:47;;;;;;;0.77;0.77;;;;;;;7.31;32.32;96949.81;5090170;28;20052;-69
2021/12/25 12:57:19;;;;;;;0.67;0.67;;;;;;;7.11;32.97;96957.72;5090439;28;20043;-69
2021/12/25 12:59:57;;;;;;;1.37;1.27;;;;;;;7.04;32.56;96930.53;5089764;28;20128;-68
2021/12/25 13:02:24;;;;;;;0.70;0.70;;;;;;;6.56;33.07;96934.28;5090081;28;20123;-69
2021/12/25 13:04:57;;;;;;;3.77;1.90;;;;;;;6.72;32.82;96971.66;5089119;28;20379;-68
2021/12/25 13:07:25;;;;;;;0.70;0.70;;;;;;;6.55;32.63;96988.81;5090516;28;20112;-69
2021/12/25 13:09:58;;;;;;;1.67;1.20;;;;;;;6.88;32.28;96987.13;5072041;28;20079;-68
2021/12/25 13:12:46;;;;;;;0.60;0.60;;;;;;;6.41;32.19;97000.31;5090288;28;20048;-68
2021/12/25 13:15:16;;;;;;;0.90;0.90;;;;;;;6.53;32.41;97005.88;5090110;28;20056;-69
2021/12/25 13:17:53;;;;;;;0.70;0.70;;;;;;;6.63;32.89;97012.38;5090458;28;20051;-68
2021/12/25 13:20:32;;;;;;;0.80;0.80;;;;;;;6.71;32.26;97019.31;5088766;28;20044;-68
2021/12/25 13:23:00;;;;;;;1.60;1.50;;;;;;;5.97;32.72;96981.44;5089984;28;20036;-69
2021/12/25 13:25:26;;;;;;;0.90;0.90;;;;;;;5.72;33.24;97008.41;5089849;28;20058;-69
2021/12/25 13:28:00;;;;;;;0.80;0.80;;;;;;;6.46;32.90;97032.19;5088835;28;20070;-68
2021/12/25 13:30:27;;;;;;;1.10;1.10;;;;;;;6.06;33.11;97011.91;5086496;28;20075;-69
2021/12/25 13:32:53;;;;;;;0.57;0.57;;;;;;;5.68;33.40;97033.47;5086919;28;20040;-70